sensor_id;sensor_type;location;lat;lon;timestamp;pressure;altitude;pressure_sealevel;temperature;humidity
15193;BME280;7697;51.630;7.484;2023-03-16T00:03:40;101214.44;;;3.18;77.75
15193;BME280;7697;51.630;7.484;2023-03-16T00:08:41;101228.63;;;3.25;78.36
15193;BME280;7697;51.630;7.484;2023-03-16T00:13:43;101204.66;;;3.10;77.69
15193;BME280;7697;51.630;7.484;2023-03-16T00:18:46;101219.53;;;3.10;78.19
15193;BME280;7697;51.630;7.484;2023-03-16T00:23:48;101218.16;;;3.15;78.30
15193;BME280;7697;51.630;7.484;2023-03-16T00:28:50;101210.44;;;3.14;78.58
15193;BME280;7697;51.630;7.484;2023-03-16T00:33:55;101181.34;;;2.97;78.03
15193;BME280;7697;51.630;7.484;2023-03-16T00:38:56;101214.84;;;3.13;78.72
15193;BME280;7697;51.630;7.484;2023-03-16T00:43:58;101196.13;;;3.08;78.35
15193;BME280;7697;51.630;7.484;2023-03-16T00:49:01;101188.53;;;3.05;78.55
15193;BME280;7697;51.630;7.484;2023-03-16T00:54:03;101205.75;;;3.08;78.95
15193;BME280;7697;51.630;7.484;2023-03-16T00:59:05;101211.81;;;3.08;78.92
15193;BME280;7697;51.630;7.484;2023-03-16T01:04:09;101212.50;;;3.00;78.92
15193;BME280;7697;51.630;7.484;2023-03-16T01:09:12;101213.72;;;2.96;78.96
15193;BME280;7697;51.630;7.484;2023-03-16T01:14:14;101185.59;;;2.79;78.95
15193;BME280;7697;51.630;7.484;2023-03-16T01:19:17;101192.31;;;2.72;78.94
15193;BME280;7697;51.630;7.484;2023-03-16T01:24:19;101208.84;;;2.73;79.57
15193;BME280;7697;51.630;7.484;2023-03-16T01:29:21;101196.97;;;2.69;79.65
15193;BME280;7697;51.630;7.484;2023-03-16T01:34:24;101162.66;;;2.52;80.04
15193;BME280;7697;51.630;7.484;2023-03-16T01:39:26;101152.50;;;2.49;80.20
15193;BME280;7697;51.630;7.484;2023-03-16T01:44:28;101146.44;;;2.49;80.63
15193;BME280;7697;51.630;7.484;2023-03-16T01:49:35;101143.41;;;2.53;80.61
15193;BME280;7697;51.630;7.484;2023-03-16T01:54:41;101142.03;;;2.49;80.95
15193;BME280;7697;51.630;7.484;2023-03-16T01:59:47;101154.16;;;2.50;81.25
15193;BME280;7697;51.630;7.484;2023-03-16T02:04:57;101146.72;;;2.55;80.79
15193;BME280;7697;51.630;7.484;2023-03-16T02:10:03;101130.22;;;2.55;80.91
15193;BME280;7697;51.630;7.484;2023-03-16T02:15:08;101120.72;;;2.54;81.06
15193;BME280;7697;51.630;7.484;2023-03-16T02:20:23;101126.13;;;2.72;81.44
15193;BME280;7697;51.630;7.484;2023-03-16T02:25:37;101100.41;;;2.67;81.45
15193;BME280;7697;51.630;7.484;2023-03-16T02:30:42;101106.03;;;2.72;81.38
15193;BME280;7697;51.630;7.484;2023-03-16T02:35:44;101106.88;;;2.82;80.73
15193;BME280;7697;51.630;7.484;2023-03-16T02:40:55;101108.69;;;2.91;80.58
15193;BME280;7697;51.630;7.484;2023-03-16T02:46:01;101100.13;;;2.89;80.31
15193;BME280;7697;51.630;7.484;2023-03-16T02:51:04;101075.75;;;2.79;80.59
15193;BME280;7697;51.630;7.484;2023-03-16T02:56:06;101081.00;;;2.79;80.33
15193;BME280;7697;51.630;7.484;2023-03-16T03:01:10;101094.38;;;2.86;79.89
15193;BME280;7697;51.630;7.484;2023-03-16T03:06:11;101082.66;;;2.80;79.44
15193;BME280;7697;51.630;7.484;2023-03-16T03:11:13;101088.16;;;2.87;80.24
15193;BME280;7697;51.630;7.484;2023-03-16T03:16:16;101089.66;;;2.89;80.43
15193;BME280;7697;51.630;7.484;2023-03-16T03:21:18;101100.97;;;2.99;80.54
15193;BME280;7697;51.630;7.484;2023-03-16T03:26:20;101098.22;;;3.01;80.31
15193;BME280;7697;51.630;7.484;2023-03-16T03:31:25;101066.00;;;3.00;80.20
15193;BME280;7697;51.630;7.484;2023-03-16T03:36:27;101062.97;;;2.95;80.32
15193;BME280;7697;51.630;7.484;2023-03-16T03:41:28;101066.97;;;2.99;80.23
15193;BME280;7697;51.630;7.484;2023-03-16T03:46:32;101059.81;;;2.92;80.27
15193;BME280;7697;51.630;7.484;2023-03-16T03:51:33;101048.25;;;2.94;80.19
15193;BME280;7697;51.630;7.484;2023-03-16T03:56:35;101040.13;;;2.88;80.50
15193;BME280;7697;51.630;7.484;2023-03-16T04:01:39;101051.28;;;2.99;80.10
15193;BME280;7697;51.630;7.484;2023-03-16T04:06:41;101060.06;;;3.08;78.92
15193;BME280;7697;51.630;7.484;2023-03-16T04:11:43;101056.75;;;3.16;78.92
15193;BME280;7697;51.630;7.484;2023-03-16T04:16:46;101038.88;;;3.21;78.46
15193;BME280;7697;51.630;7.484;2023-03-16T04:21:48;101034.16;;;3.24;78.25
15193;BME280;7697;51.630;7.484;2023-03-16T04:26:50;101021.50;;;3.20;78.35
15193;BME280;7697;51.630;7.484;2023-03-16T04:31:55;101025.31;;;3.35;78.13
15193;BME280;7697;51.630;7.484;2023-03-16T04:36:56;101024.63;;;3.43;78.04
15193;BME280;7697;51.630;7.484;2023-03-16T04:41:58;100996.25;;;3.38;77.66
15193;BME280;7697;51.630;7.484;2023-03-16T04:47:02;101014.81;;;3.54;77.14
15193;BME280;7697;51.630;7.484;2023-03-16T04:52:04;101017.81;;;3.59;77.38
15193;BME280;7697;51.630;7.484;2023-03-16T04:57:06;101005.41;;;3.61;77.10
15193;BME280;7697;51.630;7.484;2023-03-16T05:02:10;100999.91;;;3.64;77.03
15193;BME280;7697;51.630;7.484;2023-03-16T05:07:12;100997.28;;;3.64;76.97
15193;BME280;7697;51.630;7.484;2023-03-16T05:12:13;100991.72;;;3.67;76.90
15193;BME280;7697;51.630;7.484;2023-03-16T05:17:17;100992.97;;;3.73;77.36
15193;BME280;7697;51.630;7.484;2023-03-16T05:22:19;100983.31;;;3.73;76.40
15193;BME280;7697;51.630;7.484;2023-03-16T05:27:21;100992.94;;;3.83;76.72
15193;BME280;7697;51.630;7.484;2023-03-16T05:32:24;100994.94;;;3.89;76.70
15193;BME280;7697;51.630;7.484;2023-03-16T05:37:25;100978.28;;;3.90;76.55
15193;BME280;7697;51.630;7.484;2023-03-16T05:42:28;100979.03;;;4.00;75.97
15193;BME280;7697;51.630;7.484;2023-03-16T05:47:31;100985.34;;;4.07;75.93
15193;BME280;7697;51.630;7.484;2023-03-16T05:52:36;100999.91;;;4.19;76.05
15193;BME280;7697;51.630;7.484;2023-03-16T05:57:38;101008.69;;;4.28;75.71
15193;BME280;7697;51.630;7.484;2023-03-16T06:02:43;101011.06;;;4.39;75.93
15193;BME280;7697;51.630;7.484;2023-03-16T06:07:45;100998.50;;;4.42;75.80
15193;BME280;7697;51.630;7.484;2023-03-16T06:12:47;100983.94;;;4.48;75.30
15193;BME280;7697;51.630;7.484;2023-03-16T06:17:51;101008.09;;;4.69;75.42
15193;BME280;7697;51.630;7.484;2023-03-16T06:22:53;100995.88;;;4.78;75.64
15193;BME280;7697;51.630;7.484;2023-03-16T06:27:55;100986.06;;;4.80;74.98
15193;BME280;7697;51.630;7.484;2023-03-16T06:32:58;100986.47;;;4.93;74.39
15193;BME280;7697;51.630;7.484;2023-03-16T06:38:01;100999.72;;;5.09;74.79
15193;BME280;7697;51.630;7.484;2023-03-16T06:43:03;100992.88;;;5.16;74.53
15193;BME280;7697;51.630;7.484;2023-03-16T06:48:07;100979.97;;;5.23;74.55
15193;BME280;7697;51.630;7.484;2023-03-16T06:53:09;100977.91;;;5.35;73.92
15193;BME280;7697;51.630;7.484;2023-03-16T06:58:11;100984.38;;;5.48;73.25
15193;BME280;7697;51.630;7.484;2023-03-16T07:03:14;100980.66;;;5.59;73.21
15193;BME280;7697;51.630;7.484;2023-03-16T07:08:16;100990.75;;;5.72;72.18
15193;BME280;7697;51.630;7.484;2023-03-16T07:13:17;100995.41;;;5.86;72.68
15193;BME280;7697;51.630;7.484;2023-03-16T07:18:21;100994.31;;;5.96;72.77
15193;BME280;7697;51.630;7.484;2023-03-16T07:23:25;101009.16;;;6.14;72.58
15193;BME280;7697;51.630;7.484;2023-03-16T07:28:26;101014.47;;;6.30;71.26
15193;BME280;7697;51.630;7.484;2023-03-16T07:33:30;101008.25;;;6.39;70.91
15193;BME280;7697;51.630;7.484;2023-03-16T07:38:33;101011.25;;;6.52;70.59
15193;BME280;7697;51.630;7.484;2023-03-16T07:43:34;101002.03;;;6.64;70.06
15193;BME280;7697;51.630;7.484;2023-03-16T07:48:37;100990.69;;;6.64;69.91
15193;BME280;7697;51.630;7.484;2023-03-16T07:53:39;101003.69;;;6.82;69.10
15193;BME280;7697;51.630;7.484;2023-03-16T07:58:41;100981.63;;;6.83;68.89
15193;BME280;7697;51.630;7.484;2023-03-16T08:03:45;100983.63;;;6.97;68.75
15193;BME280;7697;51.630;7.484;2023-03-16T08:08:46;101002.50;;;7.16;68.15
15193;BME280;7697;51.630;7.484;2023-03-16T08:13:49;100977.66;;;7.27;67.59
15193;BME280;7697;51.630;7.484;2023-03-16T08:18:56;100992.03;;;7.64;65.80
15193;BME280;7697;51.630;7.484;2023-03-16T08:23:59;100992.19;;;7.78;65.78
15193;BME280;7697;51.630;7.484;2023-03-16T08:29:01;100985.69;;;7.89;65.11
15193;BME280;7697;51.630;7.484;2023-03-16T08:34:04;100991.38;;;8.09;63.44
15193;BME280;7697;51.630;7.484;2023-03-16T08:39:06;100985.19;;;8.24;62.94
15193;BME280;7697;51.630;7.484;2023-03-16T08:44:08;100975.72;;;8.61;61.64
15193;BME280;7697;51.630;7.484;2023-03-16T08:49:12;100981.22;;;8.97;60.22
15193;BME280;7697;51.630;7.484;2023-03-16T08:54:14;100999.50;;;9.21;59.86
15193;BME280;7697;51.630;7.484;2023-03-16T08:59:16;101003.81;;;9.37;58.09
15193;BME280;7697;51.630;7.484;2023-03-16T09:04:19;100992.44;;;9.14;58.58
15193;BME280;7697;51.630;7.484;2023-03-16T09:09:22;100992.19;;;9.09;59.32
15193;BME280;7697;51.630;7.484;2023-03-16T09:14:24;101003.56;;;9.09;59.45
15193;BME280;7697;51.630;7.484;2023-03-16T09:19:27;101002.47;;;9.03;59.65
15193;BME280;7697;51.630;7.484;2023-03-16T09:24:31;101021.75;;;9.04;59.37
15193;BME280;7697;51.630;7.484;2023-03-16T09:29:32;101005.22;;;8.87;59.26
15193;BME280;7697;51.630;7.484;2023-03-16T09:34:37;101005.59;;;8.84;59.70
15193;BME280;7697;51.630;7.484;2023-03-16T09:39:39;101021.56;;;8.91;59.31
15193;BME280;7697;51.630;7.484;2023-03-16T09:44:51;101017.38;;;8.96;59.40
15193;BME280;7697;51.630;7.484;2023-03-16T09:50:00;101009.50;;;8.88;59.45
15193;BME280;7697;51.630;7.484;2023-03-16T09:55:06;100998.19;;;9.02;59.51
15193;BME280;7697;51.630;7.484;2023-03-16T10:00:17;100999.94;;;9.10;60.13
15193;BME280;7697;51.630;7.484;2023-03-16T10:05:23;101000.09;;;9.09;59.36
15193;BME280;7697;51.630;7.484;2023-03-16T10:10:39;101006.13;;;9.17;59.21
15193;BME280;7697;51.630;7.484;2023-03-16T10:15:44;101012.16;;;9.26;59.21
15193;BME280;7697;51.630;7.484;2023-03-16T10:20:49;101007.09;;;9.39;57.97
15193;BME280;7697;51.630;7.484;2023-03-16T10:25:55;100992.78;;;9.48;58.03
15193;BME280;7697;51.630;7.484;2023-03-16T10:30:59;100987.41;;;9.56;58.42
15193;BME280;7697;51.630;7.484;2023-03-16T10:36:09;100974.09;;;9.64;58.08
15193;BME280;7697;51.630;7.484;2023-03-16T10:41:20;100991.31;;;9.90;57.55
15193;BME280;7697;51.630;7.484;2023-03-16T10:46:24;100992.56;;;9.94;56.60
15193;BME280;7697;51.630;7.484;2023-03-16T10:51:30;100977.97;;;9.98;56.98
15193;BME280;7697;51.630;7.484;2023-03-16T10:56:33;101000.31;;;10.10;56.21
15193;BME280;7697;51.630;7.484;2023-03-16T11:01:36;100987.00;;;10.18;55.81
15193;BME280;7697;51.630;7.484;2023-03-16T11:06:47;100967.25;;;10.21;56.78
15193;BME280;7697;51.630;7.484;2023-03-16T11:11:50;100963.94;;;10.33;57.19
15193;BME280;7697;51.630;7.484;2023-03-16T11:16:58;100937.81;;;10.45;56.55
15193;BME280;7697;51.630;7.484;2023-03-16T11:22:05;100932.31;;;10.46;56.56
15193;BME280;7697;51.630;7.484;2023-03-16T11:27:18;100933.06;;;10.40;55.86
15193;BME280;7697;51.630;7.484;2023-03-16T11:32:26;100928.91;;;10.31;55.60
15193;BME280;7697;51.630;7.484;2023-03-16T11:37:41;100919.91;;;10.26;56.35
15193;BME280;7697;51.630;7.484;2023-03-16T11:42:55;100892.69;;;10.17;56.05
15193;BME280;7697;51.630;7.484;2023-03-16T11:48:31;100882.38;;;10.22;56.74
15193;BME280;7697;51.630;7.484;2023-03-16T11:54:02;100886.94;;;10.28;56.24
15193;BME280;7697;51.630;7.484;2023-03-16T11:59:20;100875.63;;;10.41;56.30
15193;BME280;7697;51.630;7.484;2023-03-16T12:04:34;100877.38;;;10.83;55.74
15193;BME280;7697;51.630;7.484;2023-03-16T12:09:58;100855.28;;;10.97;55.02
15193;BME280;7697;51.630;7.484;2023-03-16T12:20:35;100842.91;;;11.52;53.05
15193;BME280;7697;51.630;7.484;2023-03-16T12:25:42;100821.53;;;11.73;53.31
15193;BME280;7697;51.630;7.484;2023-03-16T12:30:53;100801.81;;;12.28;51.96
15193;BME280;7697;51.630;7.484;2023-03-16T12:36:02;100813.41;;;12.80;50.19
15193;BME280;7697;51.630;7.484;2023-03-16T12:41:17;100787.75;;;13.12;51.06
15193;BME280;7697;51.630;7.484;2023-03-16T12:46:27;100788.75;;;13.24;50.05
15193;BME280;7697;51.630;7.484;2023-03-16T12:51:33;100778.47;;;13.41;48.66
15193;BME280;7697;51.630;7.484;2023-03-16T12:56:43;100774.66;;;13.17;48.54
15193;BME280;7697;51.630;7.484;2023-03-16T13:01:49;100771.41;;;13.15;49.30
15193;BME280;7697;51.630;7.484;2023-03-16T13:07:00;100762.00;;;13.06;49.77
15193;BME280;7697;51.630;7.484;2023-03-16T13:12:06;100748.56;;;12.94;49.89
15193;BME280;7697;51.630;7.484;2023-03-16T13:17:29;100738.78;;;12.88;49.61
15193;BME280;7697;51.630;7.484;2023-03-16T13:22:42;100723.25;;;12.78;50.13
15193;BME280;7697;51.630;7.484;2023-03-16T13:27:47;100729.41;;;12.79;49.63
15193;BME280;7697;51.630;7.484;2023-03-16T13:32:52;100710.22;;;12.70;49.61
15193;BME280;7697;51.630;7.484;2023-03-16T13:38:01;100707.91;;;12.87;48.75
15193;BME280;7697;51.630;7.484;2023-03-16T13:43:13;100710.84;;;13.10;49.58
15193;BME280;7697;51.630;7.484;2023-03-16T13:48:16;100701.06;;;13.42;49.30
15193;BME280;7697;51.630;7.484;2023-03-16T13:53:21;100671.19;;;13.72;48.48
15193;BME280;7697;51.630;7.484;2023-03-16T13:58:29;100657.59;;;13.80;47.97
15193;BME280;7697;51.630;7.484;2023-03-16T14:03:33;100669.81;;;14.31;48.58
15193;BME280;7697;51.630;7.484;2023-03-16T14:08:36;100646.91;;;14.48;46.56
15193;BME280;7697;51.630;7.484;2023-03-16T14:13:41;100646.28;;;14.64;47.65
15193;BME280;7697;51.630;7.484;2023-03-16T14:18:45;100652.41;;;14.83;46.88
15193;BME280;7697;51.630;7.484;2023-03-16T14:23:50;100637.91;;;14.60;46.17
15193;BME280;7697;51.630;7.484;2023-03-16T14:28:57;100630.91;;;14.48;47.03
15193;BME280;7697;51.630;7.484;2023-03-16T14:34:04;100605.13;;;14.42;47.76
15193;BME280;7697;51.630;7.484;2023-03-16T14:39:12;100601.50;;;14.54;46.23
15193;BME280;7697;51.630;7.484;2023-03-16T14:44:20;100600.47;;;14.37;46.20
15193;BME280;7697;51.630;7.484;2023-03-16T14:49:25;100591.38;;;14.45;46.46
15193;BME280;7697;51.630;7.484;2023-03-16T14:54:28;100574.78;;;14.43;47.04
15193;BME280;7697;51.630;7.484;2023-03-16T14:59:32;100551.25;;;14.70;47.35
15193;BME280;7697;51.630;7.484;2023-03-16T15:04:35;100555.22;;;14.79;47.45
15193;BME280;7697;51.630;7.484;2023-03-16T15:09:38;100543.69;;;14.55;47.19
15193;BME280;7697;51.630;7.484;2023-03-16T15:14:44;100545.75;;;14.53;47.28
15193;BME280;7697;51.630;7.484;2023-03-16T15:20:05;100539.72;;;14.46;47.71
15193;BME280;7697;51.630;7.484;2023-03-16T15:25:19;100528.91;;;14.41;48.96
15193;BME280;7697;51.630;7.484;2023-03-16T15:30:25;100525.63;;;14.57;49.02
15193;BME280;7697;51.630;7.484;2023-03-16T15:35:27;100507.91;;;14.62;48.60
15193;BME280;7697;51.630;7.484;2023-03-16T15:40:29;100506.38;;;14.55;48.67
15193;BME280;7697;51.630;7.484;2023-03-16T15:45:33;100512.84;;;14.59;48.33
15193;BME280;7697;51.630;7.484;2023-03-16T15:50:36;100514.59;;;14.35;48.76
15193;BME280;7697;51.630;7.484;2023-03-16T15:55:40;100522.22;;;14.32;49.63
15193;BME280;7697;51.630;7.484;2023-03-16T16:00:44;100507.38;;;14.24;50.53
15193;BME280;7697;51.630;7.484;2023-03-16T16:05:46;100493.69;;;14.20;51.14
15193;BME280;7697;51.630;7.484;2023-03-16T16:10:48;100498.75;;;14.10;50.40
15193;BME280;7697;51.630;7.484;2023-03-16T16:15:55;100487.94;;;14.05;50.85
15193;BME280;7697;51.630;7.484;2023-03-16T16:20:58;100482.78;;;13.92;50.95
15193;BME280;7697;51.630;7.484;2023-03-16T16:26:02;100483.09;;;13.84;50.94
15193;BME280;7697;51.630;7.484;2023-03-16T16:31:11;100483.44;;;13.69;51.30
15193;BME280;7697;51.630;7.484;2023-03-16T16:36:15;100464.53;;;13.59;51.13
15193;BME280;7697;51.630;7.484;2023-03-16T16:41:24;100453.81;;;13.47;51.01
15193;BME280;7697;51.630;7.484;2023-03-16T16:46:29;100454.97;;;13.33;51.70
15193;BME280;7697;51.630;7.484;2023-03-16T16:51:33;100466.50;;;13.27;51.73
15193;BME280;7697;51.630;7.484;2023-03-16T16:56:35;100473.50;;;13.22;51.67
15193;BME280;7697;51.630;7.484;2023-03-16T17:01:39;100480.19;;;13.06;52.07
15193;BME280;7697;51.630;7.484;2023-03-16T17:06:42;100481.63;;;13.02;51.86
15193;BME280;7697;51.630;7.484;2023-03-16T17:11:44;100480.34;;;12.79;52.48
15193;BME280;7697;51.630;7.484;2023-03-16T17:16:47;100487.00;;;12.70;52.83
15193;BME280;7697;51.630;7.484;2023-03-16T17:21:51;100478.06;;;12.58;52.71
15193;BME280;7697;51.630;7.484;2023-03-16T17:26:56;100460.56;;;12.44;53.39
15193;BME280;7697;51.630;7.484;2023-03-16T17:32:02;100476.34;;;12.39;53.74
15193;BME280;7697;51.630;7.484;2023-03-16T17:37:06;100463.63;;;12.16;52.87
15193;BME280;7697;51.630;7.484;2023-03-16T17:42:11;100464.06;;;12.07;53.67
15193;BME280;7697;51.630;7.484;2023-03-16T17:47:18;100471.88;;;11.95;53.95
15193;BME280;7697;51.630;7.484;2023-03-16T17:52:22;100457.22;;;11.86;53.87
15193;BME280;7697;51.630;7.484;2023-03-16T17:57:27;100460.72;;;11.80;54.39
15193;BME280;7697;51.630;7.484;2023-03-16T18:02:39;100463.34;;;11.73;54.69
15193;BME280;7697;51.630;7.484;2023-03-16T18:07:45;100477.69;;;11.59;54.40
15193;BME280;7697;51.630;7.484;2023-03-16T18:12:50;100474.44;;;11.50;54.99
15193;BME280;7697;51.630;7.484;2023-03-16T18:17:55;100472.41;;;11.46;55.03
15193;BME280;7697;51.630;7.484;2023-03-16T18:22:58;100474.47;;;11.44;54.88
15193;BME280;7697;51.630;7.484;2023-03-16T18:28:01;100471.59;;;11.39;55.27
15193;BME280;7697;51.630;7.484;2023-03-16T18:33:05;100470.19;;;11.29;55.89
15193;BME280;7697;51.630;7.484;2023-03-16T18:38:15;100478.34;;;11.21;56.16
15193;BME280;7697;51.630;7.484;2023-03-16T18:43:17;100465.31;;;11.13;56.60
15193;BME280;7697;51.630;7.484;2023-03-16T18:48:26;100460.44;;;11.04;56.94
15193;BME280;7697;51.630;7.484;2023-03-16T18:53:29;100472.06;;;11.03;57.03
15193;BME280;7697;51.630;7.484;2023-03-16T18:58:31;100463.91;;;10.98;57.75
15193;BME280;7697;51.630;7.484;2023-03-16T19:03:41;100471.03;;;10.97;58.23
15193;BME280;7697;51.630;7.484;2023-03-16T19:08:43;100461.03;;;10.93;59.00
15193;BME280;7697;51.630;7.484;2023-03-16T19:13:45;100463.50;;;10.87;59.19
15193;BME280;7697;51.630;7.484;2023-03-16T19:18:48;100449.63;;;10.79;59.74
15193;BME280;7697;51.630;7.484;2023-03-16T19:23:54;100447.81;;;10.79;59.77
15193;BME280;7697;51.630;7.484;2023-03-16T19:28:58;100450.25;;;10.81;59.84
15193;BME280;7697;51.630;7.484;2023-03-16T19:34:02;100460.22;;;10.85;60.58
15193;BME280;7697;51.630;7.484;2023-03-16T19:39:04;100458.41;;;10.73;60.94
15193;BME280;7697;51.630;7.484;2023-03-16T19:44:07;100446.38;;;10.70;61.46
15193;BME280;7697;51.630;7.484;2023-03-16T19:49:16;100453.13;;;10.73;61.35
15193;BME280;7697;51.630;7.484;2023-03-16T19:54:21;100438.00;;;10.67;61.72
15193;BME280;7697;51.630;7.484;2023-03-16T19:59:25;100448.59;;;10.67;61.65
15193;BME280;7697;51.630;7.484;2023-03-16T20:04:31;100457.78;;;10.71;61.46
15193;BME280;7697;51.630;7.484;2023-03-16T20:09:33;100441.88;;;10.58;61.78
15193;BME280;7697;51.630;7.484;2023-03-16T20:14:35;100435.38;;;10.60;61.73
15193;BME280;7697;51.630;7.484;2023-03-16T20:19:38;100427.63;;;10.59;62.19
15193;BME280;7697;51.630;7.484;2023-03-16T20:24:40;100432.91;;;10.65;62.41
15193;BME280;7697;51.630;7.484;2023-03-16T20:29:43;100420.69;;;10.58;62.33
15193;BME280;7697;51.630;7.484;2023-03-16T20:34:48;100405.81;;;10.57;62.77
15193;BME280;7697;51.630;7.484;2023-03-16T20:39:50;100400.31;;;10.65;62.75
15193;BME280;7697;51.630;7.484;2023-03-16T20:44:53;100389.34;;;10.61;62.64
15193;BME280;7697;51.630;7.484;2023-03-16T20:49:56;100371.00;;;10.53;62.90
15193;BME280;7697;51.630;7.484;2023-03-16T20:54:58;100366.53;;;10.53;62.88
15193;BME280;7697;51.630;7.484;2023-03-16T21:00:00;100353.50;;;10.45;63.10
15193;BME280;7697;51.630;7.484;2023-03-16T21:05:05;100364.91;;;10.52;62.74
15193;BME280;7697;51.630;7.484;2023-03-16T21:10:08;100349.63;;;10.41;62.68
15193;BME280;7697;51.630;7.484;2023-03-16T21:15:15;100347.78;;;10.48;62.49
15193;BME280;7697;51.630;7.484;2023-03-16T21:20:20;100331.50;;;10.45;62.72
15193;BME280;7697;51.630;7.484;2023-03-16T21:25:24;100318.47;;;10.43;62.55
15193;BME280;7697;51.630;7.484;2023-03-16T21:30:29;100331.06;;;10.48;62.12
15193;BME280;7697;51.630;7.484;2023-03-16T21:35:35;100319.91;;;10.46;62.43
15193;BME280;7697;51.630;7.484;2023-03-16T21:40:37;100296.88;;;10.40;61.76
15193;BME280;7697;51.630;7.484;2023-03-16T21:45:39;100299.94;;;10.43;61.62
15193;BME280;7697;51.630;7.484;2023-03-16T21:50:43;100298.72;;;10.46;61.63
15193;BME280;7697;51.630;7.484;2023-03-16T21:55:45;100295.25;;;10.45;61.02
15193;BME280;7697;51.630;7.484;2023-03-16T22:00:47;100285.06;;;10.42;61.06
15193;BME280;7697;51.630;7.484;2023-03-16T22:05:52;100284.66;;;10.45;61.21
15193;BME280;7697;51.630;7.484;2023-03-16T22:10:54;100276.31;;;10.42;60.77
15193;BME280;7697;51.630;7.484;2023-03-16T22:15:57;100278.94;;;10.42;60.88
15193;BME280;7697;51.630;7.484;2023-03-16T22:21:02;100276.91;;;10.44;60.83
15193;BME280;7697;51.630;7.484;2023-03-16T22:26:14;100278.13;;;10.41;60.61
15193;BME280;7697;51.630;7.484;2023-03-16T22:31:27;100260.25;;;10.37;61.29
15193;BME280;7697;51.630;7.484;2023-03-16T22:36:33;100274.50;;;10.36;60.91
15193;BME280;7697;51.630;7.484;2023-03-16T22:41:35;100262.28;;;10.35;60.51
15193;BME280;7697;51.630;7.484;2023-03-16T22:46:36;100263.09;;;10.35;60.92
15193;BME280;7697;51.630;7.484;2023-03-16T22:51:39;100251.28;;;10.31;60.75
15193;BME280;7697;51.630;7.484;2023-03-16T22:56:42;100247.81;;;10.37;60.56
15193;BME280;7697;51.630;7.484;2023-03-16T23:01:45;100241.69;;;10.30;60.69
15193;BME280;7697;51.630;7.484;2023-03-16T23:06:51;100238.44;;;10.35;60.47
15193;BME280;7697;51.630;7.484;2023-03-16T23:11:54;100232.34;;;10.34;60.44
15193;BME280;7697;51.630;7.484;2023-03-16T23:16:58;100214.84;;;10.27;60.63
15193;BME280;7697;51.630;7.484;2023-03-16T23:22:03;100231.72;;;10.32;60.17
15193;BME280;7697;51.630;7.484;2023-03-16T23:27:13;100229.47;;;10.42;60.61
15193;BME280;7697;51.630;7.484;2023-03-16T23:32:17;100241.69;;;10.43;60.35
15193;BME280;7697;51.630;7.484;2023-03-16T23:37:20;100242.72;;;10.42;60.50
15193;BME280;7697;51.630;7.484;2023-03-16T23:42:22;100249.41;;;10.51;60.34
15193;BME280;7697;51.630;7.484;2023-03-16T23:47:24;100228.81;;;10.60;59.62
15193;BME280;7697;51.630;7.484;2023-03-16T23:52:27;100221.06;;;10.65;59.44
15193;BME280;7697;51.630;7.484;2023-03-16T23:57:29;100225.53;;;10.65;59.38
